Time;durP1;ratioP1;P1;durP2;ratioP2;P2;SDS_P1;SDS_P2;PMS_P1;PMS_P2;Temp;Humidity;BMP_temperature;BMP_pressure;BME280_temperature;BME280_humidity;BME280_pressure;Samples;Min_cycle;Max_cycle;Signal;HPM_P1;HPM_P2
2023/03/08 00:00:33;;;;;;;13.30;3.88;;;1.40;99.90;;;;;;5026455;28;20026;-71
2023/03/08 00:02:59;;;;;;;12.00;3.25;;;1.40;99.90;;;;;;5015584;28;20049;-71
2023/03/08 00:05:25;;;;;;;6.55;3.05;;;1.40;99.90;;;;;;5016562;28;20473;-71
2023/03/08 00:07:54;;;;;;;11.80;3.75;;;1.40;99.90;;;;;;5016531;28;20097;-71
2023/03/08 00:10:20;;;;;;;11.70;3.53;;;1.40;99.90;;;;;;5029978;28;20022;-72
2023/03/08 00:12:46;;;;;;;9.13;3.35;;;1.40;99.90;;;;;;5022475;28;20489;-72
2023/03/08 00:15:12;;;;;;;7.20;3.47;;;1.40;99.90;;;;;;5024566;28;20105;-72
2023/03/08 00:17:38;;;;;;;10.30;3.53;;;1.40;99.90;;;;;;5028735;28;20018;-72
2023/03/08 00:20:06;;;;;;;11.05;3.58;;;1.40;99.90;;;;;;5023783;28;20017;-72
2023/03/08 00:22:38;;;;;;;9.27;3.28;;;1.40;99.90;;;;;;5033253;28;20083;-72
2023/03/08 00:25:05;;;;;;;9.00;3.33;;;1.40;99.90;;;;;;5017473;28;20022;-72
2023/03/08 00:27:30;;;;;;;8.68;3.25;;;1.30;99.90;;;;;;5028426;28;20376;-72
2023/03/08 00:29:56;;;;;;;10.23;3.40;;;1.30;99.90;;;;;;5014767;28;20127;-72
2023/03/08 00:32:23;;;;;;;6.72;3.28;;;1.30;99.90;;;;;;4996915;28;20074;-72
2023/03/08 00:34:50;;;;;;;9.68;3.42;;;1.30;99.90;;;;;;5028425;28;20088;-72
2023/03/08 00:37:16;;;;;;;8.13;3.40;;;1.20;99.90;;;;;;5021318;28;20018;-72
2023/03/08 00:39:41;;;;;;;11.60;3.45;;;1.20;99.90;;;;;;5024067;28;20026;-72
2023/03/08 00:42:07;;;;;;;11.30;3.88;;;1.20;99.90;;;;;;5020259;28;20469;-72
2023/03/08 00:44:32;;;;;;;9.88;3.13;;;1.10;99.90;;;;;;5035406;28;20060;-72
2023/03/08 00:46:58;;;;;;;7.60;3.45;;;1.10;99.90;;;;;;5031961;28;20448;-72
2023/03/08 00:49:23;;;;;;;8.45;3.55;;;1.10;99.90;;;;;;5024673;28;20065;-72
2023/03/08 00:51:49;;;;;;;6.68;3.28;;;1.10;99.90;;;;;;5032973;28;20021;-72
2023/03/08 00:54:15;;;;;;;11.10;3.78;;;1.00;99.90;;;;;;5022842;28;20376;-72
2023/03/08 00:56:40;;;;;;;15.55;3.97;;;1.00;99.90;;;;;;5036094;28;20021;-72
2023/03/08 00:59:06;;;;;;;8.98;3.95;;;1.00;99.90;;;;;;5021712;28;20036;-72
2023/03/08 01:01:32;;;;;;;11.00;3.60;;;1.00;99.90;;;;;;5034739;28;20025;-72
2023/03/08 01:03:58;;;;;;;12.18;3.53;;;1.00;99.90;;;;;;5034560;28;20396;-72
2023/03/08 01:06:24;;;;;;;12.40;3.92;;;1.00;99.90;;;;;;5034741;28;20021;-72
2023/03/08 01:08:49;;;;;;;9.15;3.30;;;1.00;99.90;;;;;;5020924;28;20331;-72
2023/03/08 01:11:25;;;;;;;9.85;3.30;;;0.90;99.90;;;;;;5028287;28;20028;-72
2023/03/08 01:13:52;;;;;;;8.70;3.42;;;1.00;99.90;;;;;;5014505;28;20025;-72
2023/03/08 01:16:30;;;;;;;9.73;3.45;;;0.90;99.90;;;;;;5034716;28;20032;-72
2023/03/08 01:18:56;;;;;;;8.77;4.10;;;0.90;99.90;;;;;;5021500;28;20032;-72
2023/03/08 01:21:23;;;;;;;7.28;3.40;;;0.90;99.90;;;;;;5020458;28;20021;-72
2023/03/08 01:23:48;;;;;;;5.63;3.50;;;0.90;99.90;;;;;;5023431;28;20057;-72
2023/03/08 01:26:16;;;;;;;7.63;4.10;;;0.90;99.90;;;;;;5016522;28;20018;-72
2023/03/08 01:28:42;;;;;;;8.20;3.78;;;0.90;99.90;;;;;;5014453;28;20471;-72
2023/03/08 01:31:12;;;;;;;5.88;3.72;;;0.90;99.90;;;;;;5025825;28;20025;-72
2023/03/08 01:33:38;;;;;;;7.28;3.60;;;0.90;99.90;;;;;;5034076;28;20105;-72
2023/03/08 01:36:05;;;;;;;9.80;4.38;;;0.90;99.90;;;;;;5034290;28;20120;-72
2023/03/08 01:38:31;;;;;;;8.00;3.65;;;0.90;99.90;;;;;;5034248;28;20033;-72
2023/03/08 01:41:01;;;;;;;8.43;3.47;;;0.90;99.90;;;;;;5024782;28;20030;-72
2023/03/08 01:43:28;;;;;;;12.85;3.95;;;0.90;99.90;;;;;;4999315;28;20264;-72
2023/03/08 01:46:16;;;;;;;7.70;3.60;;;0.80;99.90;;;;;;5018011;28;20050;-72
2023/03/08 01:48:48;;;;;;;6.88;3.53;;;0.80;99.90;;;;;;5018261;28;20026;-71
2023/03/08 01:51:18;;;;;;;9.55;3.50;;;0.80;99.90;;;;;;5014500;28;20018;-72
2023/03/08 01:53:43;;;;;;;9.57;3.45;;;0.80;99.90;;;;;;5007582;28;20025;-72
2023/03/08 01:56:12;;;;;;;10.02;3.85;;;0.90;99.90;;;;;;5022026;28;20022;-72
2023/03/08 01:58:43;;;;;;;6.28;3.17;;;0.90;99.90;;;;;;5032705;28;20040;-72
2023/03/08 02:01:09;;;;;;;8.05;2.53;;;0.90;99.90;;;;;;5021253;28;20025;-72
2023/03/08 02:03:35;;;;;;;9.20;2.55;;;1.00;99.90;;;;;;5021436;28;20400;-72
2023/03/08 02:06:02;;;;;;;11.65;2.30;;;1.00;99.90;;;;;;5033169;28;20117;-72
2023/03/08 02:08:30;;;;;;;9.90;2.40;;;1.00;99.90;;;;;;5019012;28;20030;-72
2023/03/08 02:10:56;;;;;;;8.05;2.47;;;1.10;99.90;;;;;;5033690;28;20052;-72
2023/03/08 02:13:23;;;;;;;5.93;2.50;;;1.10;99.90;;;;;;5016398;28;20022;-72
2023/03/08 02:15:50;;;;;;;6.38;2.30;;;1.10;99.90;;;;;;5022400;28;20097;-70
2023/03/08 02:18:16;;;;;;;4.72;2.20;;;1.10;99.90;;;;;;5018190;28;20445;-72
2023/03/08 02:20:42;;;;;;;4.63;2.13;;;1.10;99.90;;;;;;5021581;28;20049;-71
2023/03/08 02:23:12;;;;;;;5.20;2.50;;;1.20;99.90;;;;;;5033897;28;20052;-70
2023/03/08 02:25:39;;;;;;;7.63;2.20;;;1.20;99.90;;;;;;5028822;28;20104;-71
2023/03/08 02:28:05;;;;;;;6.07;2.38;;;1.20;99.90;;;;;;5033146;28;20056;-71
2023/03/08 02:30:36;;;;;;;7.70;2.70;;;1.20;99.90;;;;;;5014577;28;20136;-70
2023/03/08 02:33:02;;;;;;;9.23;2.70;;;1.20;99.90;;;;;;5032833;28;20033;-71
2023/03/08 02:35:29;;;;;;;5.70;2.70;;;1.20;99.90;;;;;;5018017;28;20033;-70
2023/03/08 02:37:54;;;;;;;9.38;3.00;;;1.20;99.90;;;;;;5023398;28;20048;-70
2023/03/08 02:40:20;;;;;;;7.13;2.63;;;1.20;99.90;;;;;;5012381;28;20034;-71
2023/03/08 02:42:46;;;;;;;6.72;2.70;;;1.20;99.90;;;;;;5012666;28;20034;-71
2023/03/08 02:45:11;;;;;;;11.38;3.08;;;1.10;99.90;;;;;;5028486;28;20061;-71
2023/03/08 02:47:37;;;;;;;8.38;3.60;;;1.10;99.90;;;;;;5032114;28;20143;-71
2023/03/08 02:50:04;;;;;;;8.02;3.10;;;1.10;99.90;;;;;;5031686;28;20060;-71
2023/03/08 02:52:30;;;;;;;6.45;3.33;;;1.10;99.90;;;;;;5025231;28;20547;-71
2023/03/08 02:54:56;;;;;;;7.57;3.72;;;1.10;99.90;;;;;;5019683;28;20077;-71
2023/03/08 02:57:21;;;;;;;8.98;3.85;;;1.10;99.90;;;;;;5017638;28;20416;-71
2023/03/08 02:59:47;;;;;;;7.88;3.95;;;1.10;99.90;;;;;;5012573;28;20029;-71
2023/03/08 03:02:13;;;;;;;8.52;3.85;;;1.10;99.90;;;;;;5012478;28;20026;-71
2023/03/08 03:04:38;;;;;;;8.57;3.70;;;1.10;99.90;;;;;;5012329;28;20473;-71
2023/03/08 03:07:04;;;;;;;10.23;3.85;;;1.10;99.90;;;;;;5012736;28;20108;-71
2023/03/08 03:09:30;;;;;;;8.85;3.90;;;1.10;99.90;;;;;;5009437;28;20045;-71
2023/03/08 03:11:55;;;;;;;8.07;3.78;;;1.10;99.90;;;;;;5031371;28;20037;-71
2023/03/08 03:14:21;;;;;;;11.63;3.55;;;1.10;99.90;;;;;;5017427;28;20022;-71
2023/03/08 03:16:47;;;;;;;10.57;4.20;;;1.10;99.90;;;;;;5020771;28;20030;-71
2023/03/08 03:19:12;;;;;;;11.43;4.22;;;1.10;99.90;;;;;;5017371;28;20049;-71
2023/03/08 03:21:38;;;;;;;9.35;4.20;;;1.10;99.90;;;;;;5023383;28;20116;-71
2023/03/08 03:24:04;;;;;;;8.95;3.63;;;1.10;99.90;;;;;;5033917;28;20029;-71
2023/03/08 03:26:30;;;;;;;11.65;4.20;;;1.10;99.90;;;;;;5024497;28;20536;-71
2023/03/08 03:28:57;;;;;;;10.30;4.05;;;1.10;99.90;;;;;;5025198;28;20587;-72
2023/03/08 03:31:23;;;;;;;7.68;4.10;;;1.10;99.90;;;;;;5018863;28;20036;-71
2023/03/08 03:33:52;;;;;;;11.20;4.38;;;1.10;99.90;;;;;;5031980;28;20021;-72
2023/03/08 03:36:19;;;;;;;8.90;4.03;;;1.10;99.90;;;;;;5027030;28;20030;-71
2023/03/08 03:38:46;;;;;;;10.20;4.10;;;1.10;99.90;;;;;;5016085;28;20022;-71
2023/03/08 03:41:15;;;;;;;5.70;3.83;;;1.10;99.90;;;;;;5019576;28;20014;-71
2023/03/08 03:43:41;;;;;;;8.13;4.15;;;1.00;99.90;;;;;;5026762;28;20028;-71
2023/03/08 03:46:11;;;;;;;11.05;4.13;;;1.00;99.90;;;;;;5029257;28;20046;-71
2023/03/08 03:48:37;;;;;;;8.50;4.03;;;1.00;99.90;;;;;;5024236;28;20438;-71
2023/03/08 03:51:06;;;;;;;6.40;3.60;;;1.00;99.90;;;;;;5034858;28;20025;-71
2023/03/08 03:53:33;;;;;;;8.30;4.07;;;1.00;99.90;;;;;;5015105;28;20068;-72
2023/03/08 03:56:17;;;;;;;9.93;4.72;;;1.00;99.90;;;;;;5015293;28;20041;-72
2023/03/08 03:58:43;;;;;;;10.30;4.35;;;1.00;99.90;;;;;;5026598;28;20021;-72
2023/03/08 04:01:23;;;;;;;8.43;3.95;;;1.00;99.90;;;;;;5017375;28;20045;-72
2023/03/08 04:03:49;;;;;;;13.98;4.47;;;1.00;99.90;;;;;;5015166;28;20041;-73
2023/03/08 04:06:20;;;;;;;8.40;4.40;;;1.00;99.90;;;;;;5014528;28;20030;-72
2023/03/08 04:08:46;;;;;;;9.07;4.70;;;1.00;99.90;;;;;;5014880;28;20044;-72
2023/03/08 04:11:15;;;;;;;8.40;4.93;;;1.00;99.90;;;;;;5014505;28;20113;-72
2023/03/08 04:13:41;;;;;;;9.45;4.30;;;1.00;99.90;;;;;;4997423;28;20049;-72
2023/03/08 04:16:28;;;;;;;9.45;5.18;;;1.00;99.90;;;;;;5019331;28;20065;-72
2023/03/08 04:19:06;;;;;;;13.73;5.90;;;1.00;99.90;;;;;;5032541;28;20028;-72
2023/03/08 04:21:33;;;;;;;12.35;7.10;;;1.00;99.90;;;;;;5034247;28;20087;-72
2023/03/08 04:23:59;;;;;;;15.35;7.97;;;1.00;99.90;;;;;;5031538;28;20025;-72
2023/03/08 04:26:24;;;;;;;20.25;10.00;;;1.00;99.90;;;;;;5034046;28;20033;-72
2023/03/08 04:28:50;;;;;;;23.20;11.98;;;1.00;99.90;;;;;;5017997;28;20353;-72
2023/03/08 04:31:17;;;;;;;26.42;12.00;;;1.10;99.90;;;;;;5014423;28;20093;-71
2023/03/08 04:33:44;;;;;;;26.67;13.23;;;1.10;99.90;;;;;;5014453;28;20034;-71
2023/03/08 04:36:10;;;;;;;33.67;13.88;;;1.10;99.90;;;;;;5014685;28;20073;-71
2023/03/08 04:38:35;;;;;;;25.83;13.70;;;1.20;99.90;;;;;;5014833;28;20045;-71
2023/03/08 04:41:09;;;;;;;27.05;14.07;;;1.20;99.90;;;;;;5018984;28;20026;-71
2023/03/08 04:43:35;;;;;;;28.42;14.13;;;1.20;99.90;;;;;;5034661;28;20029;-71
2023/03/08 04:46:00;;;;;;;28.38;13.57;;;1.20;99.90;;;;;;5006072;28;20143;-71
2023/03/08 04:48:26;;;;;;;27.88;13.77;;;1.30;99.90;;;;;;5043368;28;20445;-71
2023/03/08 04:50:57;;;;;;;31.27;15.00;;;1.30;99.90;;;;;;5048737;28;20040;-71
2023/03/08 04:53:24;;;;;;;31.25;15.20;;;1.30;99.90;;;;;;5044241;28;20036;-71
2023/03/08 04:55:49;;;;;;;31.25;15.77;;;1.30;99.90;;;;;;5049554;28;20117;-71
2023/03/08 04:58:15;;;;;;;29.88;15.55;;;1.30;99.90;;;;;;5054252;28;20041;-71
2023/03/08 05:00:41;;;;;;;33.63;17.13;;;1.30;99.90;;;;;;5053755;28;20147;-71
2023/03/08 05:03:07;;;;;;;31.23;16.35;;;1.30;99.90;;;;;;5048519;28;20024;-71
2023/03/08 05:05:33;;;;;;;31.35;16.95;;;1.30;99.90;;;;;;5045909;28;20033;-71
2023/03/08 05:08:03;;;;;;;31.58;16.17;;;1.30;99.90;;;;;;5053955;28;20017;-71
2023/03/08 05:10:29;;;;;;;31.42;15.70;;;1.30;99.90;;;;;;5052192;28;20025;-71
2023/03/08 05:12:54;;;;;;;31.42;16.25;;;1.30;99.90;;;;;;5052156;28;20044;-72
2023/03/08 05:15:22;;;;;;;33.35;15.40;;;1.30;99.90;;;;;;5049548;28;20034;-71
2023/03/08 05:17:48;;;;;;;36.88;15.73;;;1.20;99.90;;;;;;5042794;28;20241;-72
2023/03/08 05:20:13;;;;;;;38.75;18.10;;;1.20;99.90;;;;;;5052710;28;20029;-71
2023/03/08 05:22:39;;;;;;;36.53;17.10;;;1.30;99.90;;;;;;5045660;28;20021;-71
2023/03/08 05:25:05;;;;;;;37.60;17.95;;;1.30;99.90;;;;;;5044131;28;20086;-71
2023/03/08 05:27:35;;;;;;;39.00;18.95;;;1.30;99.90;;;;;;5038545;28;20225;-71
2023/03/08 05:30:01;;;;;;;42.90;18.92;;;1.20;99.90;;;;;;5041128;28;20033;-71
2023/03/08 05:32:27;;;;;;;40.70;19.77;;;1.20;99.90;;;;;;5050808;28;20025;-71
2023/03/08 05:34:53;;;;;;;49.70;22.52;;;1.30;99.90;;;;;;5041485;28;20041;-71
2023/03/08 05:37:18;;;;;;;51.85;23.38;;;1.30;99.90;;;;;;5034468;28;20021;-71
2023/03/08 05:39:44;;;;;;;56.60;26.10;;;1.30;99.90;;;;;;5044307;28;20105;-72
2023/03/08 05:42:11;;;;;;;58.50;27.00;;;1.30;99.90;;;;;;5045589;28;20449;-71
2023/03/08 05:44:37;;;;;;;57.90;27.48;;;1.30;99.90;;;;;;5051586;28;20467;-71
2023/03/08 05:47:03;;;;;;;67.25;28.33;;;1.30;99.90;;;;;;5038594;28;20084;-71
2023/03/08 05:49:28;;;;;;;70.15;30.35;;;1.30;99.90;;;;;;5022882;28;20033;-71
2023/03/08 05:51:54;;;;;;;70.07;31.67;;;1.40;99.90;;;;;;5031303;28;20104;-71
2023/03/08 05:54:20;;;;;;;73.28;31.98;;;1.40;99.90;;;;;;5017769;28;20025;-72
2023/03/08 05:56:46;;;;;;;77.82;34.60;;;1.40;99.90;;;;;;5031478;28;20029;-71
2023/03/08 05:59:11;;;;;;;69.45;33.15;;;1.50;99.90;;;;;;5030383;28;20017;-72
2023/03/08 06:01:37;;;;;;;76.53;34.45;;;1.50;99.90;;;;;;5020974;28;20117;-72
2023/03/08 06:04:03;;;;;;;73.53;35.05;;;1.50;99.90;;;;;;5018667;28;20481;-71
2023/03/08 06:06:29;;;;;;;72.93;33.85;;;1.50;99.90;;;;;;5021101;28;20030;-71
2023/03/08 06:08:57;;;;;;;74.65;34.60;;;1.50;99.90;;;;;;5018595;28;20030;-74
2023/03/08 06:11:23;;;;;;;77.53;36.00;;;1.60;99.90;;;;;;5022471;28;20035;-72
2023/03/08 06:13:49;;;;;;;71.15;34.15;;;1.60;99.90;;;;;;5024396;28;20025;-71
2023/03/08 06:16:15;;;;;;;78.13;34.35;;;1.60;99.90;;;;;;5013077;28;20393;-71
2023/03/08 06:18:41;;;;;;;77.60;35.28;;;1.60;99.90;;;;;;5019189;28;20488;-71
2023/03/08 06:21:16;;;;;;;89.50;37.53;;;1.70;99.90;;;;;;5021074;28;20034;-70
2023/03/08 06:23:42;;;;;;;;;;;1.70;99.90;;;;;;5007525;28;20024;-71
2023/03/08 06:26:10;;;;;;;81.22;34.63;;;1.70;99.90;;;;;;5018405;28;19909;-71
2023/03/08 06:28:36;;;;;;;87.10;34.03;;;1.70;99.90;;;;;;5031310;28;20028;-70
2023/03/08 06:31:02;;;;;;;85.88;35.65;;;1.70;99.90;;;;;;5003459;28;20112;-71
2023/03/08 06:33:31;;;;;;;91.78;37.42;;;1.60;99.90;;;;;;5018029;28;20421;-70
2023/03/08 06:36:09;;;;;;;80.50;36.13;;;1.60;99.90;;;;;;5021501;28;20040;-71
2023/03/08 06:38:37;;;;;;;88.68;37.30;;;1.70;99.90;;;;;;5017194;28;20037;-70
2023/03/08 06:41:03;;;;;;;89.22;37.97;;;1.60;99.90;;;;;;5013842;28;20036;-70
2023/03/08 06:43:29;;;;;;;93.80;38.47;;;1.60;99.90;;;;;;5012429;28;20457;-70
2023/03/08 06:45:55;;;;;;;93.68;38.17;;;1.70;99.90;;;;;;5020263;28;20128;-70
2023/03/08 06:48:21;;;;;;;95.53;38.65;;;1.60;99.90;;;;;;5021842;28;20040;-71
2023/03/08 06:50:47;;;;;;;96.18;40.80;;;1.60;99.90;;;;;;5013444;28;20148;-70
2023/03/08 06:53:13;;;;;;;92.43;38.78;;;1.60;99.90;;;;;;5021947;28;20022;-71
2023/03/08 06:55:40;;;;;;;94.90;39.90;;;1.70;99.90;;;;;;5026179;28;20078;-71
2023/03/08 06:58:07;;;;;;;96.40;40.83;;;1.70;99.90;;;;;;5013574;28;20358;-71
2023/03/08 07:00:33;;;;;;;86.57;39.28;;;1.70;99.90;;;;;;5020506;28;20049;-71
2023/03/08 07:02:59;;;;;;;91.85;40.42;;;1.70;99.90;;;;;;5018677;28;20022;-71
2023/03/08 07:05:25;;;;;;;88.75;40.42;;;1.70;99.90;;;;;;5018128;28;20037;-70
2023/03/08 07:07:50;;;;;;;87.75;39.97;;;1.70;99.90;;;;;;5012539;28;20393;-70
2023/03/08 07:10:19;;;;;;;83.18;39.08;;;1.70;99.90;;;;;;5024747;28;20037;-70
2023/03/08 07:12:48;;;;;;;89.82;41.35;;;1.60;99.90;;;;;;5019449;28;20711;-70
2023/03/08 07:15:17;;;;;;;81.53;38.30;;;1.60;99.90;;;;;;5026065;28;20042;-71
2023/03/08 07:17:44;;;;;;;90.82;40.75;;;1.60;99.90;;;;;;5013305;28;20041;-71
2023/03/08 07:20:12;;;;;;;81.35;38.53;;;1.60;99.90;;;;;;5024868;28;20029;-71
2023/03/08 07:22:40;;;;;;;84.10;39.35;;;1.60;99.90;;;;;;5018923;28;20109;-71
2023/03/08 07:25:08;;;;;;;81.15;39.72;;;1.60;99.90;;;;;;5022941;28;20073;-70
2023/03/08 07:27:33;;;;;;;84.05;39.90;;;1.70;99.90;;;;;;5021327;28;20025;-71
2023/03/08 07:29:59;;;;;;;84.10;38.10;;;1.70;99.90;;;;;;5021495;28;20135;-71
2023/03/08 07:32:27;;;;;;;86.90;40.20;;;1.70;99.90;;;;;;5022338;28;20025;-71
2023/03/08 07:34:54;;;;;;;79.72;38.65;;;1.70;99.90;;;;;;5021506;28;20555;-71
2023/03/08 07:37:19;;;;;;;79.15;38.50;;;1.70;99.90;;;;;;5025079;28;20061;-71
2023/03/08 07:39:45;;;;;;;86.68;39.90;;;1.70;99.90;;;;;;5024559;28;20079;-71
2023/03/08 07:42:11;;;;;;;83.80;39.05;;;1.70;99.90;;;;;;5021360;28;20072;-71
2023/03/08 07:44:36;;;;;;;80.15;39.28;;;1.70;99.90;;;;;;5022724;28;20058;-71
2023/03/08 07:47:04;;;;;;;82.90;39.17;;;1.70;99.90;;;;;;5025378;28;20045;-71
2023/03/08 07:49:30;;;;;;;84.20;38.45;;;1.80;99.90;;;;;;5020170;28;20025;-71
2023/03/08 07:51:55;;;;;;;85.97;38.25;;;1.80;99.90;;;;;;5020688;28;20100;-71
2023/03/08 07:54:21;;;;;;;86.47;38.53;;;1.80;99.90;;;;;;5024158;28;20026;-71
2023/03/08 07:56:46;;;;;;;91.57;39.80;;;1.80;99.90;;;;;;5027635;28;20073;-71
2023/03/08 07:59:12;;;;;;;86.93;38.00;;;1.80;99.90;;;;;;5027773;28;20067;-71
2023/03/08 08:01:38;;;;;;;86.70;38.17;;;1.80;99.90;;;;;;5027728;28;20030;-71
2023/03/08 08:04:03;;;;;;;85.40;36.72;;;1.80;99.90;;;;;;5004172;28;20017;-71
2023/03/08 08:06:29;;;;;;;92.40;37.75;;;1.80;99.90;;;;;;5024680;28;20370;-71
2023/03/08 08:08:56;;;;;;;86.40;37.83;;;1.80;99.90;;;;;;5017881;28;20044;-71
2023/03/08 08:11:22;;;;;;;90.63;37.03;;;1.80;99.90;;;;;;5014988;28;20041;-71
2023/03/08 08:13:48;;;;;;;93.57;37.70;;;1.80;99.90;;;;;;5021766;28;20032;-71
2023/03/08 08:16:15;;;;;;;88.57;37.47;;;1.90;99.90;;;;;;5021177;28;20477;-71
2023/03/08 08:18:41;;;;;;;89.95;36.58;;;1.90;99.90;;;;;;5028785;28;20029;-71
2023/03/08 08:21:09;;;;;;;86.22;35.60;;;2.00;99.90;;;;;;5020634;28;20022;-71
2023/03/08 08:23:36;;;;;;;81.13;35.20;;;2.00;99.90;;;;;;5017085;28;20034;-71
2023/03/08 08:26:07;;;;;;;81.70;35.13;;;2.00;99.90;;;;;;5022985;28;20487;-71
2023/03/08 08:28:33;;;;;;;80.38;34.25;;;2.00;99.90;;;;;;5025934;28;20034;-71
2023/03/08 08:31:02;;;;;;;74.28;32.50;;;2.00;99.90;;;;;;5021844;28;20022;-71
2023/03/08 08:33:29;;;;;;;73.78;32.65;;;2.10;99.90;;;;;;5026568;28;20026;-71
2023/03/08 08:35:55;;;;;;;75.38;32.40;;;2.10;99.90;;;;;;5019194;28;20034;-71
2023/03/08 08:38:21;;;;;;;68.28;29.58;;;2.10;99.90;;;;;;5019113;28;20018;-71
2023/03/08 08:40:46;;;;;;;65.40;30.10;;;2.10;99.90;;;;;;5027392;28;20440;-71
2023/03/08 08:43:12;;;;;;;65.75;31.08;;;2.10;99.90;;;;;;5029877;28;20026;-71
2023/03/08 08:45:45;;;;;;;64.43;29.10;;;2.20;99.90;;;;;;5023476;28;20076;-71
2023/03/08 08:48:12;;;;;;;55.83;26.73;;;2.20;99.90;;;;;;5017660;28;20034;-71
2023/03/08 08:50:39;;;;;;;53.60;25.70;;;2.20;99.90;;;;;;5016671;28;20029;-71
2023/03/08 08:53:06;;;;;;;51.97;25.13;;;2.20;99.90;;;;;;5015814;28;20029;-71
2023/03/08 08:55:31;;;;;;;49.75;22.90;;;2.20;99.90;;;;;;5024578;28;20045;-71
2023/03/08 08:57:57;;;;;;;50.55;22.25;;;2.20;99.90;;;;;;5019822;28;20477;-71
2023/03/08 09:00:22;;;;;;;51.17;23.15;;;2.20;99.90;;;;;;5024649;28;20030;-71
2023/03/08 09:02:48;;;;;;;50.92;24.17;;;2.30;99.90;;;;;;5020500;28;20108;-71
2023/03/08 09:05:14;;;;;;;44.50;21.70;;;2.30;99.90;;;;;;5022159;28;20025;-71
2023/03/08 09:07:39;;;;;;;46.97;21.52;;;2.30;99.90;;;;;;5021245;28;20065;-71
2023/03/08 09:10:06;;;;;;;47.22;22.25;;;2.40;99.90;;;;;;5029825;28;20088;-74
2023/03/08 09:12:32;;;;;;;46.28;21.70;;;2.40;99.90;;;;;;5033749;28;20447;-71
2023/03/08 09:14:57;;;;;;;43.50;19.75;;;2.50;99.90;;;;;;5029319;28;20109;-71
2023/03/08 09:17:23;;;;;;;38.90;18.48;;;2.50;99.90;;;;;;5026786;28;20030;-71
2023/03/08 09:19:49;;;;;;;36.30;18.23;;;2.60;99.90;;;;;;5007214;28;20018;-71
2023/03/08 09:22:14;;;;;;;35.85;18.27;;;2.70;99.90;;;;;;5001778;28;20085;-71
2023/03/08 09:24:40;;;;;;;36.67;17.90;;;2.70;99.90;;;;;;5018358;28;20037;-71
2023/03/08 09:27:06;;;;;;;32.88;16.55;;;2.70;99.90;;;;;;5016520;28;20022;-71
2023/03/08 09:29:32;;;;;;;34.50;16.67;;;2.80;99.90;;;;;;5014526;28;20084;-71
2023/03/08 09:31:58;;;;;;;31.98;15.07;;;2.80;99.90;;;;;;5026578;28;20670;-71
2023/03/08 09:34:25;;;;;;;29.13;15.13;;;2.90;99.90;;;;;;5028019;28;20022;-71
2023/03/08 09:36:51;;;;;;;25.77;12.70;;;2.80;99.90;;;;;;5013043;28;20034;-71
2023/03/08 09:39:16;;;;;;;27.25;13.65;;;2.80;99.90;;;;;;5031232;28;20025;-71
2023/03/08 09:41:57;;;;;;;26.83;12.95;;;2.90;99.90;;;;;;5022492;28;20041;-71
2023/03/08 09:44:42;;;;;;;28.92;13.90;;;2.90;99.90;;;;;;5028332;28;20350;-71
2023/03/08 09:47:24;;;;;;;24.52;12.57;;;3.00;99.90;;;;;;5015859;28;20092;-71
2023/03/08 09:49:54;;;;;;;28.35;12.82;;;3.10;99.90;;;;;;5022033;28;20025;-71
2023/03/08 09:52:32;;;;;;;27.65;14.30;;;3.10;99.90;;;;;;5032985;28;20389;-71
2023/03/08 09:54:59;;;;;;;26.98;13.05;;;3.20;99.90;;;;;;5019311;28;20481;-71
2023/03/08 09:57:35;;;;;;;26.05;13.30;;;3.20;99.90;;;;;;5027670;28;20034;-71
2023/03/08 10:00:07;;;;;;;27.42;13.90;;;3.20;99.90;;;;;;5025309;28;20057;-71
2023/03/08 10:02:56;;;;;;;29.23;14.70;;;3.30;99.90;;;;;;5021682;28;20490;-71
2023/03/08 10:05:27;;;;;;;29.92;15.27;;;3.30;99.90;;;;;;5033761;28;20021;-71
2023/03/08 10:07:55;;;;;;;30.83;15.20;;;3.30;99.90;;;;;;5025213;28;20029;-71
2023/03/08 10:10:35;;;;;;;28.55;15.15;;;3.30;99.90;;;;;;5033423;28;20029;-71
2023/03/08 10:13:31;;;;;;;29.48;14.77;;;3.40;99.90;;;;;;5024667;28;20037;-71
2023/03/08 10:16:05;;;;;;;30.05;15.40;;;3.30;99.90;;;;;;5013396;28;20396;-71
2023/03/08 10:18:33;;;;;;;33.03;17.77;;;3.30;99.90;;;;;;5027208;28;20083;-71
2023/03/08 10:21:00;;;;;;;27.33;14.60;;;3.30;99.90;;;;;;5013682;28;20315;-72
2023/03/08 10:23:31;;;;;;;28.33;15.00;;;3.30;99.90;;;;;;5027113;28;20427;-71
2023/03/08 10:25:58;;;;;;;28.45;14.73;;;3.30;99.90;;;;;;5013291;28;20109;-71
2023/03/08 10:28:26;;;;;;;23.67;12.43;;;3.30;99.90;;;;;;5013206;28;20448;-71
2023/03/08 10:30:53;;;;;;;20.08;10.75;;;3.30;99.90;;;;;;5012317;28;20045;-69
2023/03/08 10:33:23;;;;;;;19.65;10.65;;;3.20;99.90;;;;;;5023664;28;20048;-70
2023/03/08 10:36:16;;;;;;;21.40;10.68;;;3.20;99.90;;;;;;5032100;28;20036;-70
2023/03/08 10:38:54;;;;;;;20.55;10.45;;;3.20;99.90;;;;;;5021804;28;20034;-70
2023/03/08 10:41:19;;;;;;;18.13;9.90;;;3.20;99.90;;;;;;5019562;28;20546;-70
2023/03/08 10:43:51;;;;;;;17.63;9.95;;;3.30;99.90;;;;;;5032465;28;20025;-70
2023/03/08 10:46:22;;;;;;;17.27;10.18;;;3.40;99.90;;;;;;5026175;28;20049;-70
2023/03/08 10:48:48;;;;;;;20.70;10.57;;;3.40;99.90;;;;;;5012452;28;20521;-70
2023/03/08 10:51:21;;;;;;;19.52;11.52;;;3.40;99.90;;;;;;5026473;28;20105;-70
2023/03/08 10:53:53;;;;;;;20.42;11.55;;;3.50;99.90;;;;;;5012131;28;20026;-70
2023/03/08 10:56:29;;;;;;;22.70;11.52;;;3.50;99.90;;;;;;5030062;28;20086;-70
2023/03/08 10:58:56;;;;;;;22.35;12.25;;;3.60;99.90;;;;;;5025258;28;20381;-70
2023/03/08 11:01:27;;;;;;;22.25;11.57;;;3.70;99.90;;;;;;5029651;28;20469;-70
2023/03/08 11:04:01;;;;;;;19.70;10.88;;;3.70;99.90;;;;;;5024125;28;20096;-70
2023/03/08 11:06:27;;;;;;;20.48;11.43;;;3.80;99.90;;;;;;5024208;28;20040;-70
2023/03/08 11:08:58;;;;;;;18.83;11.02;;;3.80;99.90;;;;;;5027259;28;20014;-70
2023/03/08 11:11:25;;;;;;;21.25;11.13;;;3.80;99.90;;;;;;5014322;28;20025;-70
2023/03/08 11:13:52;;;;;;;18.83;10.85;;;3.90;99.90;;;;;;5021950;28;20021;-70
2023/03/08 11:16:45;;;;;;;20.70;10.63;;;3.90;99.90;;;;;;4993492;28;20037;-70
2023/03/08 11:19:25;;;;;;;22.40;10.93;;;4.00;99.90;;;;;;5017879;28;20025;-70
2023/03/08 11:22:25;;;;;;;18.80;10.70;;;4.00;99.90;;;;;;5024663;28;20542;-71
2023/03/08 11:25:10;;;;;;;18.80;10.95;;;4.00;99.90;;;;;;5013403;28;20045;-70
2023/03/08 11:27:53;;;;;;;22.00;11.60;;;4.10;99.90;;;;;;5011351;28;20087;-70
2023/03/08 11:30:33;;;;;;;22.77;11.85;;;4.20;99.90;;;;;;5025407;28;20052;-70
2023/03/08 11:33:13;;;;;;;23.50;12.00;;;4.20;99.90;;;;;;5022085;28;20025;-71
2023/03/08 11:35:55;;;;;;;20.80;12.00;;;4.20;99.90;;;;;;5027295;28;20041;-70
2023/03/08 11:38:26;;;;;;;21.23;11.93;;;4.40;99.90;;;;;;5012451;28;20079;-70
2023/03/08 11:41:14;;;;;;;20.13;11.00;;;4.60;99.90;;;;;;5027297;28;20453;-70
2023/03/08 11:43:57;;;;;;;21.95;11.45;;;4.80;99.90;;;;;;5018935;28;20030;-69
2023/03/08 11:46:36;;;;;;;19.92;10.93;;;5.00;99.90;;;;;;5012769;28;20074;-70
2023/03/08 11:49:40;;;;;;;18.48;10.60;;;5.10;99.90;;;;;;5020015;28;20472;-70
2023/03/08 11:52:31;;;;;;;18.83;10.73;;;5.20;99.90;;;;;;5021620;28;20100;-70
2023/03/08 11:55:19;;;;;;;19.10;10.68;;;5.20;99.90;;;;;;5021099;28;20030;-71
2023/03/08 11:57:50;;;;;;;22.20;10.90;;;5.20;99.90;;;;;;5019504;28;20499;-71
2023/03/08 12:00:38;;;;;;;18.48;10.20;;;5.10;99.90;;;;;;5018726;28;20065;-70
2023/03/08 12:03:13;;;;;;;19.10;10.13;;;5.20;99.90;;;;;;5027314;28;20419;-70
2023/03/08 12:05:44;;;;;;;19.42;10.43;;;5.10;99.90;;;;;;5026902;28;20034;-71
2023/03/08 12:08:19;;;;;;;19.42;10.73;;;5.00;99.90;;;;;;5020745;28;20476;-70
2023/03/08 12:10:57;;;;;;;19.65;11.13;;;5.00;99.90;;;;;;5021733;28;20097;-70
2023/03/08 12:13:37;;;;;;;18.05;10.55;;;4.90;99.90;;;;;;5024069;28;20408;-70
2023/03/08 12:16:08;;;;;;;19.63;9.68;;;4.90;99.90;;;;;;5015188;28;20193;-70
2023/03/08 12:18:39;;;;;;;22.58;11.55;;;4.90;99.90;;;;;;5028754;28;20029;-72
2023/03/08 12:21:28;;;;;;;20.42;10.40;;;4.80;99.90;;;;;;5025871;28;20022;-71
2023/03/08 12:23:54;;;;;;;21.15;10.55;;;4.80;99.90;;;;;;5022271;28;20026;-71
2023/03/08 12:26:43;;;;;;;18.40;10.63;;;4.70;99.90;;;;;;5024713;28;20026;-71
2023/03/08 12:29:18;;;;;;;20.63;10.73;;;4.70;99.90;;;;;;5022163;28;20030;-71
2023/03/08 12:31:49;;;;;;;21.85;12.43;;;4.70;99.90;;;;;;5021016;28;20032;-71
2023/03/08 12:34:43;;;;;;;21.88;11.98;;;4.60;99.90;;;;;;5017697;28;20026;-71
2023/03/08 12:37:38;;;;;;;20.98;12.13;;;4.60;99.90;;;;;;5017747;28;20030;-72
2023/03/08 12:40:26;;;;;;;23.03;11.67;;;4.60;99.90;;;;;;5002189;28;20034;-71
2023/03/08 12:43:08;;;;;;;21.60;12.13;;;4.70;99.90;;;;;;5020452;28;20087;-71
2023/03/08 12:45:34;;;;;;;22.60;12.57;;;4.60;99.90;;;;;;5019864;28;20068;-73
2023/03/08 12:48:05;;;;;;;25.98;13.32;;;4.70;99.90;;;;;;5039821;28;20036;-71
2023/03/08 12:51:26;;;;;;;22.25;12.40;;;4.70;99.90;;;;;;5037895;28;20451;-73
2023/03/08 12:53:51;;;;;;;22.45;12.20;;;4.70;99.90;;;;;;5020902;28;20041;-71